createdAt,value
2022-09-20T00:01:18.898Z,3.34
2022-09-20T00:02:40.023Z,3.58
2022-09-20T00:04:01.992Z,3.13
2022-09-20T00:05:25.117Z,3.32
2022-09-20T00:06:46.339Z,5.86
2022-09-20T00:08:09.436Z,5.53
2022-09-20T00:10:51.688Z,3.43
2022-09-20T00:12:13.366Z,4.27
2022-09-20T00:13:36.237Z,4.01
2022-09-20T00:14:57.498Z,2.19
2022-09-20T00:16:22.509Z,2.64
2022-09-20T00:17:43.783Z,2.87
2022-09-20T00:19:05.713Z,4.17
2022-09-20T00:20:27.558Z,4.31
2022-09-20T00:21:49.063Z,3.39
2022-09-20T00:23:10.316Z,3.18
2022-09-20T00:24:31.756Z,4.94
2022-09-20T00:25:56.696Z,4.33
2022-09-20T00:27:17.724Z,3.44
2022-09-20T00:28:39.552Z,5.40
2022-09-20T00:30:01.125Z,3.58
2022-09-20T00:31:22.244Z,3.30
2022-09-20T00:32:43.568Z,3.88
2022-09-20T00:34:05.268Z,3.92
2022-09-20T00:35:27.476Z,5.12
2022-09-20T00:36:48.698Z,6.83
2022-09-20T00:38:09.961Z,3.80
2022-09-20T00:39:31.204Z,3.51
2022-09-20T00:40:52.791Z,4.36
2022-09-20T00:42:14.569Z,4.45
2022-09-20T00:43:41.590Z,4.56
2022-09-20T00:45:06.375Z,4.06
2022-09-20T00:46:37.704Z,4.08
2022-09-20T00:49:27.152Z,5.72
2022-09-20T00:50:53.965Z,6.18
2022-09-20T00:52:15.151Z,3.94
2022-09-20T00:53:38.650Z,4.37
2022-09-20T00:54:59.654Z,5.56
2022-09-20T00:56:24.087Z,3.72
2022-09-20T00:57:45.538Z,4.73
2022-09-20T00:59:13.583Z,4.13
2022-09-20T01:00:35.561Z,4.24
2022-09-20T01:01:59.670Z,4.27
2022-09-20T01:03:20.819Z,4.86
2022-09-20T01:04:42.083Z,3.94
2022-09-20T01:06:06.517Z,4.25
2022-09-20T01:07:27.927Z,5.31
2022-09-20T01:08:50.417Z,5.13
2022-09-20T01:11:33.889Z,5.98
2022-09-20T01:12:54.951Z,4.32
2022-09-20T01:14:16.397Z,5.00
2022-09-20T01:15:37.784Z,4.43
2022-09-20T01:17:01.583Z,4.24
2022-09-20T01:18:23.461Z,4.54
2022-09-20T01:19:51.378Z,5.41
2022-09-20T01:21:12.563Z,3.52
2022-09-20T01:24:06.336Z,4.32
2022-09-20T01:27:07.843Z,3.53
2022-09-20T01:28:29.070Z,3.72
2022-09-20T01:30:05.175Z,3.86
2022-09-20T01:31:29.369Z,4.66
2022-09-20T01:33:15.601Z,4.34
2022-09-20T01:34:46.431Z,4.11
2022-09-20T01:36:08.025Z,4.03
2022-09-20T01:38:07.527Z,4.24
2022-09-20T01:39:41.570Z,4.38
2022-09-20T01:41:23.770Z,4.17
2022-09-20T01:42:48.045Z,3.79
2022-09-20T01:44:24.216Z,5.71
2022-09-20T01:45:47.624Z,3.81
2022-09-20T01:47:33.645Z,4.26
2022-09-20T01:50:54.942Z,3.53
2022-09-20T01:52:48.863Z,3.93
2022-09-20T01:54:40.948Z,4.17
2022-09-20T01:56:06.166Z,3.16
2022-09-20T01:57:40.130Z,2.90
2022-09-20T01:59:23.778Z,4.27
2022-09-20T02:01:14.436Z,2.67
2022-09-20T02:03:14.290Z,3.12
2022-09-20T02:06:25.812Z,3.81
2022-09-20T02:08:07.857Z,3.29
2022-09-20T02:09:47.843Z,3.97
2022-09-20T02:11:12.702Z,2.87
2022-09-20T02:12:43.370Z,5.70
2022-09-20T02:14:17.480Z,3.19
2022-09-20T02:15:48.145Z,2.96
2022-09-20T02:17:14.140Z,3.71
2022-09-20T02:19:07.968Z,5.13
2022-09-20T02:20:42.600Z,5.51
2022-09-20T02:22:22.770Z,2.83
2022-09-20T02:23:56.990Z,4.08
2022-09-20T02:25:51.045Z,4.13
2022-09-20T02:27:18.950Z,3.06
2022-09-20T02:29:01.796Z,3.91
2022-09-20T02:30:35.822Z,3.49
2022-09-20T02:32:09.581Z,4.49
2022-09-20T02:33:37.913Z,4.41
2022-09-20T02:35:23.157Z,4.73
2022-09-20T02:37:04.067Z,3.16
2022-09-20T02:38:37.980Z,3.64
2022-09-20T02:40:18.196Z,3.66
2022-09-20T02:42:18.260Z,3.88
2022-09-20T02:43:45.863Z,3.89
2022-09-20T02:45:26.351Z,3.33
2022-09-20T02:47:09.828Z,5.03
2022-09-20T02:48:51.178Z,3.64
2022-09-20T02:50:27.633Z,4.09
2022-09-20T02:51:55.542Z,4.58
2022-09-20T02:53:44.523Z,2.89
2022-09-20T02:55:15.834Z,4.72
2022-09-20T02:58:20.265Z,3.24
2022-09-20T03:01:07.437Z,3.58
2022-09-20T03:02:49.365Z,5.17
2022-09-20T03:04:40.958Z,4.35
2022-09-20T03:06:16.991Z,4.54
2022-09-20T03:07:47.405Z,4.51
2022-09-20T03:09:28.902Z,4.97
2022-09-20T03:11:13.479Z,4.27
2022-09-20T03:12:38.626Z,8.72
2022-09-20T03:15:41.009Z,6.63
2022-09-20T03:17:25.706Z,5.07
2022-09-20T03:18:50.461Z,4.21
2022-09-20T03:20:26.093Z,3.89
2022-09-20T03:21:53.937Z,4.79
2022-09-20T03:23:31.032Z,4.28
2022-09-20T03:25:14.130Z,5.07
2022-09-20T03:26:57.490Z,3.73
2022-09-20T03:28:39.986Z,4.12
2022-09-20T03:30:04.734Z,4.70
2022-09-20T03:31:44.867Z,6.01
2022-09-20T03:33:22.150Z,6.92
2022-09-20T03:34:56.826Z,6.15
2022-09-20T03:36:28.026Z,5.33
2022-09-20T03:38:13.683Z,6.17
2022-09-20T03:39:53.749Z,5.13
2022-09-20T03:41:19.294Z,5.92
2022-09-20T03:42:49.163Z,6.04
2022-09-20T03:44:30.296Z,5.33
2022-09-20T03:45:55.091Z,6.06
2022-09-20T03:47:55.947Z,4.96
2022-09-20T03:49:39.352Z,6.08
2022-09-20T03:51:07.790Z,5.42
2022-09-20T03:52:41.544Z,6.38
2022-09-20T03:55:57.713Z,5.23
2022-09-20T03:57:39.228Z,5.24
2022-09-20T03:59:30.709Z,6.95
2022-09-20T04:01:01.541Z,6.74
2022-09-20T04:02:26.922Z,8.72
2022-09-20T04:04:03.839Z,7.08
2022-09-20T04:06:50.455Z,6.66
2022-09-20T04:08:24.747Z,10.08
2022-09-20T04:10:25.888Z,6.63
2022-09-20T04:11:54.236Z,6.20
2022-09-20T04:13:39.626Z,5.79
2022-09-20T04:15:40.722Z,5.61
2022-09-20T04:17:26.599Z,5.12
2022-09-20T04:19:03.591Z,5.28
2022-09-20T04:20:31.845Z,5.45
2022-09-20T04:21:55.443Z,6.73
2022-09-20T04:25:05.332Z,5.37
2022-09-20T04:26:29.251Z,7.45
2022-09-20T04:29:12.025Z,6.51
2022-09-20T04:30:40.030Z,6.60
2022-09-20T04:33:38.802Z,6.67
2022-09-20T04:35:20.978Z,11.16
2022-09-20T04:38:14.199Z,8.33
2022-09-20T04:39:50.653Z,9.07
2022-09-20T04:41:40.581Z,8.17
2022-09-20T04:43:39.831Z,7.41
2022-09-20T04:47:01.051Z,6.87
2022-09-20T04:48:48.718Z,10.40
2022-09-20T04:50:44.415Z,7.44
2022-09-20T04:53:38.591Z,5.66
2022-09-20T04:55:18.639Z,8.96
2022-09-20T04:57:01.745Z,13.98
2022-09-20T05:00:09.090Z,6.58
2022-09-20T05:01:43.526Z,6.89
2022-09-20T05:03:15.408Z,7.76
2022-09-20T05:04:46.702Z,7.28
2022-09-20T05:06:18.423Z,7.62
2022-09-20T05:07:46.595Z,8.77
2022-09-20T05:09:12.552Z,8.71
2022-09-20T05:12:37.406Z,6.90
2022-09-20T05:14:23.069Z,7.84
2022-09-20T05:16:03.819Z,8.31
2022-09-20T05:17:43.781Z,8.57
2022-09-20T05:20:48.915Z,21.42
2022-09-20T05:22:27.204Z,7.77
2022-09-20T05:24:18.339Z,8.00
2022-09-20T05:26:10.835Z,8.26
2022-09-20T05:27:41.899Z,10.70
2022-09-20T05:30:46.842Z,11.75
2022-09-20T05:32:29.111Z,11.73
2022-09-20T05:34:05.803Z,8.28
2022-09-20T05:35:43.238Z,9.72
2022-09-20T05:38:42.878Z,13.48
2022-09-20T05:41:57.144Z,7.47
2022-09-20T05:45:05.407Z,7.03
2022-09-20T05:46:57.238Z,7.42
2022-09-20T05:48:52.783Z,12.18
2022-09-20T05:50:31.158Z,9.56
2022-09-20T05:52:08.134Z,8.55
2022-09-20T05:53:52.630Z,11.65
2022-09-20T05:57:17.430Z,8.46
2022-09-20T05:58:58.556Z,9.02
2022-09-20T06:00:23.405Z,11.19
2022-09-20T06:02:00.299Z,9.09
2022-09-20T06:06:32.581Z,9.53
2022-09-20T06:08:06.396Z,8.47
2022-09-20T06:09:37.220Z,9.34
2022-09-20T06:12:51.301Z,9.92
2022-09-20T06:14:42.330Z,8.32
2022-09-20T06:16:06.917Z,8.98
2022-09-20T06:17:48.743Z,9.51
2022-09-20T06:19:45.542Z,8.36
2022-09-20T06:21:25.750Z,7.32
2022-09-20T06:22:49.464Z,8.09
2022-09-20T06:24:38.617Z,8.88
2022-09-20T06:26:02.401Z,13.01
2022-09-20T06:27:27.554Z,10.11
2022-09-20T06:28:50.337Z,9.46
2022-09-20T06:30:15.258Z,8.88
2022-09-20T06:31:36.727Z,8.69
2022-09-20T06:32:59.990Z,11.62
2022-09-20T06:35:46.715Z,8.44
2022-09-20T06:37:17.234Z,9.03
2022-09-20T06:40:17.928Z,8.01
2022-09-20T06:41:40.000Z,8.54
2022-09-20T06:43:02.593Z,8.97
2022-09-20T06:45:47.617Z,13.27
2022-09-20T06:48:25.558Z,9.92
2022-09-20T06:49:47.204Z,10.61
2022-09-20T06:51:08.725Z,13.68
2022-09-20T06:52:31.399Z,11.55
2022-09-20T06:53:53.375Z,10.88
2022-09-20T06:56:31.188Z,7.73
2022-09-20T06:57:52.549Z,11.32
2022-09-20T06:59:14.238Z,9.89
2022-09-20T07:00:36.301Z,10.91
2022-09-20T07:01:57.815Z,9.28
2022-09-20T07:03:19.588Z,9.64
2022-09-20T07:04:40.975Z,8.42
2022-09-20T07:06:02.228Z,8.44
2022-09-20T07:07:23.208Z,11.70
2022-09-20T07:10:01.100Z,11.95
2022-09-20T07:11:22.842Z,11.72
2022-09-20T07:12:44.115Z,10.57
2022-09-20T07:14:05.788Z,8.75
2022-09-20T07:15:28.573Z,9.07
2022-09-20T07:16:50.627Z,12.49
2022-09-20T07:18:12.041Z,11.29
2022-09-20T07:19:33.716Z,12.58
2022-09-20T07:20:55.560Z,11.74
2022-09-20T07:22:16.957Z,9.31
2022-09-20T07:24:49.348Z,10.96
2022-09-20T07:27:36.252Z,10.65
2022-09-20T07:28:59.392Z,10.93
2022-09-20T07:30:23.569Z,12.24
2022-09-20T07:31:46.752Z,10.01
2022-09-20T07:33:08.063Z,13.67
2022-09-20T07:34:29.393Z,12.22
2022-09-20T07:35:52.660Z,11.87
2022-09-20T07:37:16.943Z,12.47
2022-09-20T07:38:39.415Z,11.97
2022-09-20T07:40:01.309Z,13.70
2022-09-20T07:41:23.184Z,10.96
2022-09-20T07:42:44.428Z,11.89
2022-09-20T07:44:05.703Z,11.52
2022-09-20T07:45:28.311Z,11.12
2022-09-20T07:46:57.132Z,11.11
2022-09-20T07:48:18.632Z,10.48
2022-09-20T07:49:39.753Z,12.06
2022-09-20T07:51:06.728Z,15.20
2022-09-20T07:52:26.491Z,10.69
2022-09-20T07:53:48.163Z,8.33
2022-09-20T07:55:11.393Z,7.03
2022-09-20T07:56:32.910Z,9.26
2022-09-20T07:57:54.309Z,10.17
2022-09-20T07:59:15.777Z,10.28
2022-09-20T08:00:37.071Z,10.64
2022-09-20T08:01:58.185Z,12.02
2022-09-20T08:03:19.921Z,13.55
2022-09-20T08:04:42.183Z,10.17
2022-09-20T08:06:05.988Z,10.69
2022-09-20T08:07:28.343Z,13.40
2022-09-20T08:08:49.687Z,10.88
2022-09-20T08:10:11.786Z,12.71
2022-09-20T08:11:33.421Z,11.77
2022-09-20T08:15:39.944Z,11.08
2022-09-20T08:17:01.312Z,8.62
2022-09-20T08:18:22.556Z,8.16
2022-09-20T08:19:43.973Z,8.06
2022-09-20T08:21:07.128Z,9.17
2022-09-20T08:23:50.422Z,11.07
2022-09-20T08:25:11.803Z,10.02
2022-09-20T08:26:34.792Z,10.22
2022-09-20T08:27:56.120Z,12.78
2022-09-20T08:29:17.729Z,10.96
2022-09-20T08:30:39.236Z,13.05
2022-09-20T08:32:00.593Z,10.14
2022-09-20T08:33:22.022Z,12.84
2022-09-20T08:34:43.332Z,11.76
2022-09-20T08:36:06.028Z,14.14
2022-09-20T08:37:27.465Z,14.17
2022-09-20T08:40:12.826Z,15.17
2022-09-20T08:41:35.723Z,14.31
2022-09-20T08:44:35.892Z,11.99
2022-09-20T08:45:57.536Z,16.71
2022-09-20T08:47:22.947Z,12.06
2022-09-20T08:48:44.846Z,15.79
2022-09-20T08:50:11.140Z,11.32
2022-09-20T08:52:46.166Z,10.94
2022-09-20T08:54:10.360Z,12.98
2022-09-20T08:56:43.593Z,11.31
2022-09-20T08:58:08.875Z,8.47
2022-09-20T08:59:28.632Z,9.86
2022-09-20T09:00:50.178Z,11.61
2022-09-20T09:03:33.802Z,16.11
2022-09-20T09:04:55.237Z,11.36
2022-09-20T09:06:19.176Z,10.36
2022-09-20T09:07:40.527Z,11.07
2022-09-20T09:09:01.822Z,10.06
2022-09-20T09:10:26.445Z,9.64
2022-09-20T09:11:47.842Z,8.30
2022-09-20T09:13:15.590Z,10.23
2022-09-20T09:14:36.671Z,9.59
2022-09-20T09:16:06.770Z,8.11
2022-09-20T09:17:28.769Z,10.31
2022-09-20T09:18:50.547Z,7.56
2022-09-20T09:20:17.895Z,8.88
2022-09-20T09:23:02.847Z,5.74
2022-09-20T09:24:24.123Z,8.91
2022-09-20T09:25:45.869Z,9.16
2022-09-20T09:27:15.413Z,7.63
2022-09-20T09:28:36.499Z,7.39
2022-09-20T09:29:58.039Z,6.19
2022-09-20T09:31:25.278Z,6.32
2022-09-20T09:32:46.705Z,6.34
2022-09-20T09:34:29.191Z,6.96
2022-09-20T09:37:11.740Z,7.17
2022-09-20T09:38:37.670Z,6.29
2022-09-20T09:40:14.014Z,3.96
2022-09-20T09:41:35.945Z,4.88
2022-09-20T09:43:03.376Z,5.43
2022-09-20T09:45:38.030Z,10.22
2022-09-20T09:46:59.924Z,4.18
2022-09-20T09:48:29.219Z,5.60
2022-09-20T09:50:00.826Z,5.38
2022-09-20T09:51:20.511Z,7.63
2022-09-20T09:52:44.022Z,6.34
2022-09-20T09:54:05.694Z,8.60
2022-09-20T09:55:35.268Z,4.41
2022-09-20T09:57:22.572Z,5.68
2022-09-20T10:00:18.597Z,3.12
2022-09-20T10:02:01.100Z,4.58
2022-09-20T10:03:44.169Z,4.68
2022-09-20T10:05:12.113Z,2.78
2022-09-20T10:06:51.705Z,6.03
2022-09-20T10:08:21.305Z,5.79
2022-09-20T10:11:13.038Z,5.07
2022-09-20T10:14:26.672Z,5.27
2022-09-20T10:15:57.070Z,3.67
2022-09-20T10:17:30.999Z,4.59
2022-09-20T10:20:25.266Z,9.13
2022-09-20T10:21:51.741Z,4.14
2022-09-20T10:26:34.189Z,5.32
2022-09-20T10:28:00.495Z,10.45
2022-09-20T10:29:44.076Z,6.78
2022-09-20T10:32:45.891Z,5.99
2022-09-20T10:34:40.190Z,3.72
2022-09-20T10:36:07.976Z,6.46
2022-09-20T10:37:39.485Z,10.71
2022-09-20T10:42:23.340Z,7.41
2022-09-20T10:44:06.630Z,3.38
2022-09-20T10:46:49.343Z,3.87
2022-09-20T10:48:24.193Z,6.62
2022-09-20T10:50:09.187Z,3.38
2022-09-20T10:51:37.665Z,4.04
2022-09-20T10:54:44.741Z,4.09
2022-09-20T10:59:24.062Z,4.18
2022-09-20T11:01:04.633Z,2.25
2022-09-20T11:02:32.647Z,3.40
2022-09-20T11:04:22.355Z,2.98
2022-09-20T11:06:08.526Z,3.37
2022-09-20T11:07:54.801Z,5.57
2022-09-20T11:09:19.369Z,2.67
2022-09-20T11:10:55.472Z,2.97
2022-09-20T11:12:29.258Z,3.84
2022-09-20T11:14:03.465Z,4.84
2022-09-20T11:17:15.919Z,4.18
2022-09-20T11:20:18.775Z,3.66
2022-09-20T11:21:49.204Z,5.21
2022-09-20T11:23:15.718Z,2.20
2022-09-20T11:24:46.577Z,4.82
2022-09-20T11:26:18.888Z,3.43
2022-09-20T11:27:44.006Z,3.36
2022-09-20T11:29:28.704Z,4.14
2022-09-20T11:31:12.322Z,4.96
2022-09-20T11:36:54.912Z,2.87
2022-09-20T11:38:28.203Z,9.08
2022-09-20T11:39:55.242Z,5.34
2022-09-20T11:41:26.708Z,7.69
2022-09-20T11:42:48.187Z,3.56
2022-09-20T11:45:28.344Z,6.84
2022-09-20T11:46:59.992Z,3.71
2022-09-20T11:48:27.755Z,6.55
2022-09-20T11:50:35.015Z,3.03
2022-09-20T12:04:20.543Z,3.30
2022-09-20T12:05:37.238Z,2.57
2022-09-20T12:07:09.798Z,3.97
2022-09-20T12:08:34.784Z,4.20
2022-09-20T12:12:49.088Z,6.15
2022-09-20T12:14:18.590Z,5.83
2022-09-20T12:15:39.846Z,4.09
2022-09-20T12:17:01.287Z,5.22
2022-09-20T12:18:35.020Z,3.86
2022-09-20T12:19:56.458Z,2.92
2022-09-20T12:21:18.191Z,3.17
2022-09-20T12:22:39.736Z,3.16
2022-09-20T12:24:04.043Z,3.84
2022-09-20T12:25:37.207Z,6.37
2022-09-20T12:27:04.462Z,3.84
2022-09-20T12:28:35.844Z,5.41
2022-09-20T12:31:43.252Z,4.43
2022-09-20T12:34:22.081Z,3.87
2022-09-20T12:37:08.034Z,3.06
2022-09-20T12:38:30.778Z,3.07
2022-09-20T12:39:53.312Z,4.88
2022-09-20T12:41:16.555Z,7.91
2022-09-20T12:42:38.376Z,4.59
2022-09-20T12:44:03.024Z,4.90
2022-09-20T12:45:26.430Z,3.93
2022-09-20T12:48:11.568Z,4.08
2022-09-20T12:49:48.628Z,3.53
2022-09-20T12:51:18.693Z,3.90
2022-09-20T12:52:46.684Z,3.82
2022-09-20T12:54:10.907Z,2.92
2022-09-20T12:55:55.635Z,3.31
2022-09-20T12:57:24.569Z,4.71
2022-09-20T12:58:51.818Z,4.12
2022-09-20T13:00:17.670Z,3.62
2022-09-20T13:01:38.787Z,4.40
2022-09-20T13:03:00.339Z,4.46
2022-09-20T13:04:42.072Z,3.70
2022-09-20T13:06:21.835Z,4.47
2022-09-20T13:07:49.889Z,4.13
2022-09-20T13:09:12.298Z,4.92
2022-09-20T13:10:35.238Z,3.90
2022-09-20T13:11:56.597Z,3.79
2022-09-20T13:13:32.978Z,3.34
2022-09-20T13:14:54.509Z,4.61
2022-09-20T13:16:27.203Z,3.73
2022-09-20T13:17:52.730Z,4.51
2022-09-20T13:19:28.253Z,3.67
2022-09-20T13:20:49.618Z,4.67
2022-09-20T13:22:21.174Z,3.58
2022-09-20T13:23:49.414Z,4.68
2022-09-20T13:26:26.030Z,3.98
2022-09-20T13:28:08.558Z,3.57
2022-09-20T13:30:51.302Z,4.14
2022-09-20T13:32:29.935Z,4.05
2022-09-20T13:33:50.971Z,4.16
2022-09-20T13:35:19.014Z,3.65
2022-09-20T13:36:40.441Z,4.12
2022-09-20T13:38:03.971Z,4.83
2022-09-20T13:39:28.823Z,6.66
2022-09-20T13:40:51.748Z,4.41
2022-09-20T13:42:15.047Z,4.63
2022-09-20T13:43:47.471Z,4.48
2022-09-20T13:45:11.031Z,3.96
2022-09-20T13:46:32.796Z,4.92
2022-09-20T13:47:54.518Z,4.76
2022-09-20T13:49:17.626Z,4.18
2022-09-20T13:51:52.318Z,8.05
2022-09-20T13:53:33.312Z,5.79
2022-09-20T13:54:37.843Z,4.62
2022-09-20T13:55:59.147Z,5.16
2022-09-20T13:57:28.096Z,5.78
2022-09-20T13:58:50.030Z,5.24
2022-09-20T14:01:34.894Z,5.61
2022-09-20T14:02:56.200Z,4.21
2022-09-20T14:04:22.887Z,3.98
2022-09-20T14:05:48.761Z,5.11
2022-09-20T14:07:09.803Z,5.81
2022-09-20T14:08:45.900Z,5.98
2022-09-20T14:10:29.370Z,6.46
2022-09-20T14:11:50.749Z,5.38
2022-09-20T14:14:26.428Z,2.64
2022-09-20T14:15:47.957Z,6.12
2022-09-20T14:17:12.180Z,9.68
2022-09-20T14:18:33.953Z,3.46
2022-09-20T14:19:55.287Z,8.76
2022-09-20T14:21:19.515Z,5.30
2022-09-20T14:22:40.881Z,6.12
2022-09-20T14:24:04.922Z,4.66
2022-09-20T14:25:26.569Z,5.06
2022-09-20T14:28:18.123Z,4.28
2022-09-20T14:29:41.488Z,5.43
2022-09-20T14:31:18.511Z,5.97
2022-09-20T14:32:43.455Z,4.14
2022-09-20T14:34:04.628Z,3.72
2022-09-20T14:35:27.012Z,3.35
2022-09-20T14:36:48.873Z,6.80
2022-09-20T14:38:12.989Z,8.60
2022-09-20T14:39:34.953Z,5.91
2022-09-20T14:40:56.604Z,3.14
2022-09-20T14:42:31.271Z,3.38
2022-09-20T14:43:56.747Z,4.18
2022-09-20T14:45:24.590Z,2.58
2022-09-20T14:46:45.978Z,3.45
2022-09-20T14:48:16.897Z,3.73
2022-09-20T14:49:38.748Z,7.26
2022-09-20T14:51:19.518Z,15.02
2022-09-20T14:52:42.571Z,7.03
2022-09-20T14:54:07.642Z,7.43
2022-09-20T14:56:50.348Z,5.94
2022-09-20T14:58:13.663Z,3.19
2022-09-20T14:59:36.171Z,4.48
2022-09-20T15:02:20.082Z,4.79
2022-09-20T15:03:41.720Z,5.39
2022-09-20T15:05:03.483Z,4.40
2022-09-20T15:06:25.931Z,5.76
2022-09-20T15:07:47.424Z,4.46
2022-09-20T15:09:10.503Z,3.62
2022-09-20T15:10:32.725Z,4.87
2022-09-20T15:13:26.897Z,4.65
2022-09-20T15:14:48.692Z,5.65
2022-09-20T15:16:11.848Z,4.58
2022-09-20T15:17:33.833Z,3.16
2022-09-20T15:18:55.210Z,4.38
2022-09-20T15:20:23.759Z,5.09
2022-09-20T15:21:42.465Z,4.47
2022-09-20T15:23:05.952Z,4.13
2022-09-20T15:24:27.547Z,5.54
2022-09-20T15:25:52.339Z,6.27
2022-09-20T15:27:15.617Z,7.59
2022-09-20T15:29:57.663Z,8.01
2022-09-20T15:31:19.503Z,8.98
2022-09-20T15:32:42.551Z,6.64
2022-09-20T15:34:05.830Z,5.96
2022-09-20T15:35:27.356Z,4.11
2022-09-20T15:36:49.128Z,6.12
2022-09-20T15:38:10.444Z,7.19
2022-09-20T15:39:31.806Z,6.96
2022-09-20T15:40:54.446Z,6.24
2022-09-20T15:42:15.962Z,5.11
2022-09-20T15:43:38.363Z,5.16
2022-09-20T15:44:59.593Z,5.58
2022-09-20T15:46:23.955Z,4.76
2022-09-20T15:47:46.229Z,3.81
2022-09-20T15:49:09.303Z,6.01
2022-09-20T15:50:32.022Z,4.69
2022-09-20T15:51:53.696Z,6.45
2022-09-20T15:53:14.790Z,4.70
2022-09-20T15:54:35.809Z,5.09
2022-09-20T15:55:58.007Z,5.64
2022-09-20T15:57:19.204Z,5.40
2022-09-20T15:58:43.771Z,3.41
2022-09-20T16:00:06.647Z,3.86
2022-09-20T16:02:50.060Z,3.31
2022-09-20T16:04:13.028Z,5.26
2022-09-20T16:05:34.243Z,4.19
2022-09-20T16:06:55.677Z,3.40
2022-09-20T16:08:17.337Z,4.09
2022-09-20T16:09:38.648Z,2.86
2022-09-20T16:11:00.072Z,2.92
2022-09-20T16:12:23.271Z,3.38
2022-09-20T16:13:44.704Z,3.54
2022-09-20T16:15:07.134Z,6.31
2022-09-20T16:16:29.494Z,3.04
2022-09-20T16:17:51.507Z,4.67
2022-09-20T16:19:13.126Z,6.58
2022-09-20T16:20:34.742Z,3.81
2022-09-20T16:21:58.688Z,3.97
2022-09-20T16:23:24.030Z,2.81
2022-09-20T16:24:42.753Z,2.86
2022-09-20T16:27:16.391Z,1.70
2022-09-20T16:28:39.046Z,5.03
2022-09-20T16:30:01.546Z,4.42
2022-09-20T16:31:36.794Z,5.92
2022-09-20T16:32:58.197Z,3.56
2022-09-20T16:35:41.144Z,3.72
2022-09-20T16:37:05.334Z,4.93
2022-09-20T16:38:26.610Z,4.65
2022-09-20T16:39:47.640Z,5.20
2022-09-20T16:41:09.310Z,6.71
2022-09-20T16:42:30.936Z,4.08
2022-09-20T16:43:52.565Z,4.36
2022-09-20T16:45:14.122Z,3.21
2022-09-20T16:46:35.602Z,3.89
2022-09-20T16:47:56.736Z,3.68
2022-09-20T16:49:18.748Z,2.72
2022-09-20T16:50:39.878Z,3.01
2022-09-20T16:52:03.384Z,4.14
2022-09-20T16:53:25.192Z,6.63
2022-09-20T16:54:46.707Z,4.07
2022-09-20T16:56:10.785Z,3.49
2022-09-20T16:57:32.298Z,4.06
2022-09-20T16:58:53.459Z,5.60
2022-09-20T17:00:15.400Z,6.03
2022-09-20T17:01:37.626Z,4.73
2022-09-20T17:02:58.644Z,4.68
2022-09-20T17:04:20.478Z,4.19
2022-09-20T17:05:41.663Z,4.84
2022-09-20T17:07:03.465Z,4.20
2022-09-20T17:08:24.931Z,5.23
2022-09-20T17:09:47.390Z,4.93
2022-09-20T17:11:16.018Z,5.11
2022-09-20T17:12:37.183Z,6.62
2022-09-20T17:13:58.364Z,4.74
2022-09-20T17:15:20.417Z,5.27
2022-09-20T17:16:42.397Z,6.00
2022-09-20T17:18:03.649Z,5.63
2022-09-20T17:19:25.108Z,5.46
2022-09-20T17:20:46.578Z,5.46
2022-09-20T17:22:08.006Z,3.76
2022-09-20T17:23:29.103Z,6.76
2022-09-20T17:24:50.324Z,5.01
2022-09-20T17:26:18.611Z,5.19
2022-09-20T17:27:39.686Z,4.45
2022-09-20T17:29:01.458Z,6.13
2022-09-20T17:30:23.774Z,3.87
2022-09-20T17:31:50.121Z,6.22
2022-09-20T17:33:09.342Z,7.39
2022-09-20T17:34:30.429Z,8.61
2022-09-20T17:35:51.540Z,5.42
2022-09-20T17:37:12.862Z,6.94
2022-09-20T17:38:34.170Z,5.96
2022-09-20T17:39:56.444Z,5.64
2022-09-20T17:41:18.901Z,6.77
2022-09-20T17:42:40.322Z,7.37
2022-09-20T17:44:01.617Z,5.58
2022-09-20T17:45:25.145Z,11.04
2022-09-20T17:46:47.392Z,8.43
2022-09-20T17:48:08.323Z,9.40
2022-09-20T17:49:29.315Z,5.51
2022-09-20T17:50:55.468Z,6.70
2022-09-20T17:52:16.476Z,9.24
2022-09-20T17:53:37.451Z,5.51
2022-09-20T17:54:58.900Z,4.44
2022-09-20T17:57:43.377Z,10.83
2022-09-20T17:59:05.693Z,9.11
2022-09-20T18:00:30.881Z,5.24
2022-09-20T18:01:52.012Z,6.71
2022-09-20T18:03:13.505Z,4.28
2022-09-20T18:04:35.080Z,7.38
2022-09-20T18:05:56.525Z,6.99
2022-09-20T18:07:18.003Z,7.56
2022-09-20T18:08:40.245Z,7.96
2022-09-20T18:10:01.665Z,5.80
2022-09-20T18:11:28.756Z,6.39
2022-09-20T18:12:50.732Z,7.54
2022-09-20T18:14:12.811Z,4.36
2022-09-20T18:15:34.484Z,4.79
2022-09-20T18:16:58.346Z,5.32
2022-09-20T18:18:20.042Z,5.48
2022-09-20T18:19:41.121Z,5.78
2022-09-20T18:22:23.591Z,4.57
2022-09-20T18:23:45.431Z,5.29
2022-09-20T18:25:07.535Z,5.57
2022-09-20T18:26:29.719Z,4.23
2022-09-20T18:27:50.690Z,3.83
2022-09-20T18:29:13.045Z,5.86
2022-09-20T18:30:34.310Z,5.06
2022-09-20T18:31:55.792Z,5.04
2022-09-20T18:33:17.233Z,5.61
2022-09-20T18:34:38.258Z,4.03
2022-09-20T18:36:03.726Z,7.71
2022-09-20T18:37:24.724Z,5.01
2022-09-20T18:38:45.723Z,7.12
2022-09-20T18:40:07.940Z,7.54
2022-09-20T18:42:40.915Z,5.94
2022-09-20T18:44:03.387Z,5.78
2022-09-20T18:45:26.066Z,4.41
2022-09-20T18:46:47.608Z,5.46
2022-09-20T18:48:08.680Z,6.68
2022-09-20T18:49:30.697Z,6.66
2022-09-20T18:51:00.702Z,7.52
2022-09-20T18:52:21.777Z,4.53
2022-09-20T18:53:43.156Z,5.64
2022-09-20T18:55:04.660Z,8.29
2022-09-20T18:57:42.607Z,4.62
2022-09-20T18:59:05.844Z,4.42
2022-09-20T19:00:28.536Z,5.48
2022-09-20T19:01:54.162Z,5.68
2022-09-20T19:04:49.752Z,4.27
2022-09-20T19:06:11.577Z,4.57
2022-09-20T19:07:42.701Z,3.26
2022-09-20T19:09:07.846Z,5.64
2022-09-20T19:10:37.908Z,3.87
2022-09-20T19:13:16.741Z,2.98
2022-09-20T19:15:07.181Z,3.14
2022-09-20T19:16:33.385Z,3.67
2022-09-20T19:18:10.529Z,3.92
2022-09-20T19:20:53.307Z,4.35
2022-09-20T19:22:27.753Z,4.81
2022-09-20T19:24:02.481Z,7.97
2022-09-20T19:26:48.363Z,3.40
2022-09-20T19:28:10.389Z,4.30
2022-09-20T19:29:32.266Z,4.31
2022-09-20T19:30:54.581Z,2.71
2022-09-20T19:32:16.685Z,4.47
2022-09-20T19:33:38.005Z,2.93
2022-09-20T19:34:59.433Z,4.47
2022-09-20T19:36:22.469Z,5.83
2022-09-20T19:38:15.509Z,4.00
2022-09-20T19:40:14.092Z,6.87
2022-09-20T19:43:27.414Z,6.82
2022-09-20T19:45:16.803Z,7.87
2022-09-20T19:46:44.594Z,4.47
2022-09-20T19:48:12.702Z,4.48
2022-09-20T19:49:43.355Z,5.97
2022-09-20T19:52:17.512Z,4.92
2022-09-20T19:53:39.333Z,8.18
2022-09-20T19:55:01.005Z,4.11
2022-09-20T19:56:27.201Z,4.40
2022-09-20T19:57:49.535Z,4.55
2022-09-20T19:59:10.898Z,4.88
2022-09-20T20:00:33.591Z,3.99
2022-09-20T20:01:55.269Z,4.96
2022-09-20T20:03:17.665Z,4.28
2022-09-20T20:04:39.602Z,6.39
2022-09-20T20:06:22.430Z,4.46
2022-09-20T20:07:56.849Z,2.69
2022-09-20T20:10:55.682Z,5.03
2022-09-20T20:12:26.019Z,5.35
2022-09-20T20:13:56.903Z,5.67
2022-09-20T20:15:42.866Z,4.66
2022-09-20T20:17:24.375Z,4.33
2022-09-20T20:19:03.975Z,4.81
2022-09-20T20:20:44.219Z,4.21
2022-09-20T20:22:20.861Z,4.62
2022-09-20T20:24:03.843Z,5.84
2022-09-20T20:25:56.596Z,4.87
2022-09-20T20:27:20.651Z,5.52
2022-09-20T20:28:41.807Z,4.11
2022-09-20T20:30:03.464Z,4.82
2022-09-20T20:31:24.903Z,5.41
2022-09-20T20:32:45.847Z,6.94
2022-09-20T20:34:06.802Z,8.33
2022-09-20T20:35:28.357Z,13.67
2022-09-20T20:36:49.699Z,6.97
2022-09-20T20:38:10.682Z,4.86
2022-09-20T20:39:32.335Z,4.85
2022-09-20T20:42:16.824Z,6.27
2022-09-20T20:43:39.786Z,7.30
2022-09-20T20:45:01.089Z,4.58
2022-09-20T20:46:23.533Z,4.52
2022-09-20T20:47:44.521Z,4.99
2022-09-20T20:49:06.060Z,4.91
2022-09-20T20:50:28.859Z,4.28
2022-09-20T20:51:50.230Z,4.51
2022-09-20T20:53:11.213Z,4.39
2022-09-20T20:54:33.117Z,3.90
2022-09-20T20:56:01.761Z,5.37
2022-09-20T20:57:23.105Z,4.92
2022-09-20T20:58:44.264Z,3.54
2022-09-20T21:00:07.299Z,4.37
2022-09-20T21:01:29.663Z,4.70
2022-09-20T21:03:00.080Z,3.53
2022-09-20T21:04:21.838Z,4.07
2022-09-20T21:05:43.034Z,5.41
2022-09-20T21:07:04.677Z,4.32
2022-09-20T21:09:46.348Z,4.86
2022-09-20T21:11:09.964Z,3.56
2022-09-20T21:13:56.765Z,5.31
2022-09-20T21:16:40.884Z,5.17
2022-09-20T21:18:02.302Z,5.04
2022-09-20T21:19:23.300Z,4.14
2022-09-20T21:20:45.070Z,5.49
2022-09-20T21:22:06.523Z,5.33
2022-09-20T21:23:30.891Z,5.64
2022-09-20T21:24:52.046Z,5.48
2022-09-20T21:27:23.766Z,5.43
2022-09-20T21:28:52.865Z,4.94
2022-09-20T21:30:15.833Z,4.81
2022-09-20T21:31:38.872Z,6.41
2022-09-20T21:34:20.816Z,4.65
2022-09-20T21:35:42.227Z,4.38
2022-09-20T21:37:03.156Z,4.44
2022-09-20T21:38:24.745Z,5.00
2022-09-20T21:39:46.302Z,5.18
2022-09-20T21:41:13.603Z,4.11
2022-09-20T21:42:34.958Z,4.26
2022-09-20T21:43:57.811Z,4.90
2022-09-20T21:45:18.937Z,4.09
2022-09-20T21:46:41.218Z,4.34
2022-09-20T21:48:02.238Z,4.47
2022-09-20T21:49:23.729Z,5.07
2022-09-20T21:50:45.388Z,4.08
2022-09-20T21:52:06.611Z,4.05
2022-09-20T21:53:28.109Z,3.70
2022-09-20T21:54:49.493Z,3.66
2022-09-20T21:56:13.672Z,3.43
2022-09-20T21:57:34.740Z,4.07
2022-09-20T21:58:56.353Z,5.34